Powhatan — WCZ5243 — position and weather

sailwx.info

Track history (hours):
 
Tides and Currents Weather Stations Pressure Air Temp Water Temp Dewpoint Dewpoint Depression Visibility Wind Speed Wind Dir Waves Ship Positions

Powhatan

Owner: SAUSE BROS., COOS BAY, OR. More information available from US FCC via Universal Licensing System and Coast Guard Vessel Documentation Center.

Last reported at 2018-Jul-22 12:30 UTC. Time now 2018-Jul-22 12:44 UTC.
Position N 37°38' W 122°52'.

Type: Towing. MMSI: 367008820.

Date/timePositionNaut miles runAvg speedWind from/ knotsBaromVisibWave heightAir tempDewpointWater temp
2018-Jul-22 12:30N 37°38' W 122°52'4 8.2
2018-Jul-22 12:00N 37°36' W 122°57'4 8.2
2018-Jul-22 11:30N 37°33' W 123°01'4 7.9
2018-Jul-22 11:00N 37°31' W 123°05'4 7.3
2018-Jul-22 10:30N 37°32' W 123°10'3 7.0
2018-Jul-22 10:00N 37°34' W 123°14'3 6.9
2018-Jul-22 09:30N 37°35' W 123°18'4 7.1
2018-Jul-22 09:00N 37°37' W 123°22'4 7.2
2018-Jul-22 08:27N 37°38' W 123°26'3 5.9
2018-Jul-22 08:00N 37°39' W 123°29'1 1.1
2018-Jul-22 07:30N 37°39' W 123°29'3 5.2
2018-Jul-22 07:00N 37°39' W 123°25'3 6.1
2018-Jul-22 06:30N 37°38' W 123°22'3 6.0
2018-Jul-22 06:00N 37°38' W 123°18'4 6.3
2018-Jul-22 05:21N 37°38' W 123°13'2 6.2
2018-Jul-22 05:00N 37°38' W 123°10'3 6.0
2018-Jul-22 04:30N 37°38' W 123°06'3 6.0
2018-Jul-22 04:00N 37°38' W 123°02'4 6.5
2018-Jul-22 03:26N 37°38' W 122°58'3 6.5
2018-Jul-22 03:00N 37°40' W 122°55'3 6.9
2018-Jul-22 02:30N 37°42' W 122°51'4 6.9
2018-Jul-22 02:00N 37°43' W 122°47'3 6.8
2018-Jul-22 01:30N 37°44' W 122°43'3 6.8
2018-Jul-22 01:00N 37°46' W 122°39'3 6.0
2018-Jul-22 00:30N 37°47' W 122°36'3 5.6
2018-Jul-22 00:00N 37°48' W 122°32'2 4.6
2018-Jul-21 23:30N 37°49' W 122°30'2 4.7
2018-Jul-21 23:00N 37°50' W 122°27'3 5.1
2018-Jul-21 22:30N 37°52' W 122°25'2 4.7
2018-Jul-21 22:01N 37°54' W 122°25'1 2.4
2018-Jul-21 21:30N 37°54' W 122°23'1 2.5
2018-Jul-21 21:00N 37°55' W 122°22'0 0.0
2018-Jul-21 20:30N 37°55' W 122°22'0 0.0
2018-Jul-21 20:00N 37°55' W 122°22'0 0.0
2018-Jul-21 19:30N 37°55' W 122°22'0 0.0
2018-Jul-21 19:00N 37°55' W 122°22'0 0.0
2018-Jul-21 18:30N 37°55' W 122°22'1 1.9
2018-Jul-21 18:00N 37°54' W 122°22'3 7.0
2018-Jul-21 17:30N 37°51' W 122°24'4 8.8
2018-Jul-21 17:00N 37°46' W 122°23'0 0.0
2018-Jul-21 16:30N 37°46' W 122°23'0 0.0
2018-Jul-21 16:00N 37°46' W 122°23'0 0.0
2018-Jul-21 15:30N 37°46' W 122°23'0 0.0
2018-Jul-21 15:00N 37°46' W 122°23'0 0.0
2018-Jul-21 14:30N 37°46' W 122°23'0 0.0
2018-Jul-21 13:30N 37°46' W 122°23'0 0.0
2018-Jul-21 13:00N 37°46' W 122°23'0 0.0
2018-Jul-21 12:30N 37°46' W 122°23'0 0.0
2018-Jul-21 12:00N 37°46' W 122°23'0 0.0
2018-Jul-21 11:30N 37°46' W 122°23'0 0.0
2018-Jul-21 11:00N 37°46' W 122°23'0 0.0
2018-Jul-21 10:30N 37°46' W 122°23'0 0.0
2018-Jul-21 10:00N 37°46' W 122°23'0 0.0
2018-Jul-21 09:30N 37°46' W 122°23'0 0.0
2018-Jul-21 09:00N 37°46' W 122°23'0 0.0
2018-Jul-21 08:30N 37°46' W 122°23'0 0.0
2018-Jul-21 08:00N 37°46' W 122°23'0 0.0
2018-Jul-21 07:30N 37°46' W 122°23'0 0.0
2018-Jul-21 07:00N 37°46' W 122°23'0 0.0
2018-Jul-21 06:30N 37°46' W 122°23'0 0.0
2018-Jul-21 06:00N 37°46' W 122°23'0 0.0
2018-Jul-21 05:30N 37°46' W 122°23'0 0.0
2018-Jul-21 05:00N 37°46' W 122°23'0 0.0
2018-Jul-21 04:30N 37°46' W 122°23'0 0.0
2018-Jul-21 04:00N 37°46' W 122°23'0 0.0
2018-Jul-21 03:30N 37°46' W 122°23'0 0.0
2018-Jul-21 03:00N 37°46' W 122°23'0 0.0
2018-Jul-21 02:30N 37°46' W 122°23'0 0.0
2018-Jul-21 02:00N 37°46' W 122°23'0 0.0
2018-Jul-21 01:30N 37°46' W 122°23'0 0.0
2018-Jul-21 01:00N 37°46' W 122°23'0 0.0
2018-Jul-21 00:30N 37°46' W 122°23'0 0.0
2018-Jul-20 23:59N 37°46' W 122°23'0 0.0
2018-Jul-20 23:30N 37°46' W 122°23'0 0.0
2018-Jul-20 22:59N 37°46' W 122°23'0 0.0
2018-Jul-20 22:30N 37°46' W 122°23'0 0.0
2018-Jul-20 22:00N 37°46' W 122°23'0 0.0
2018-Jul-20 21:30N 37°46' W 122°23'0 0.0
2018-Jul-20 21:00N 37°46' W 122°23'0 0.0
2018-Jul-20 20:30N 37°46' W 122°23'0 0.0
2018-Jul-20 20:00N 37°46' W 122°23'0 0.0
2018-Jul-20 19:30N 37°46' W 122°23'0 0.0
2018-Jul-20 19:00N 37°46' W 122°23'0 0.0
2018-Jul-20 18:30N 37°46' W 122°23'0 0.0
2018-Jul-20 18:00N 37°46' W 122°23'0 0.0
2018-Jul-20 17:30N 37°46' W 122°23'0 0.0
2018-Jul-20 17:00N 37°46' W 122°23'0 0.0
2018-Jul-20 16:30N 37°46' W 122°23'  
2018-Jul-16 17:37N 37°46' W 122°23'0 0.0
2018-Jul-16 17:30N 37°46' W 122°23'  
Track history (hours):
 
Tides and Currents Weather Stations Pressure Air Temp Water Temp Dewpoint Dewpoint Depression Visibility Wind Speed Wind Dir Waves Ship Positions

Powhatan

Owner: SAUSE BROS., COOS BAY, OR. More information available from US FCC via Universal Licensing System and Coast Guard Vessel Documentation Center.

Last reported at 2018-Jul-22 12:30 UTC. Time now 2018-Jul-22 12:44 UTC.
Position N 37°38' W 122°52'.

Type: Towing. MMSI: 367008820.

Date/timePositionNaut miles runAvg speedWind from/ knotsBaromVisibWave heightAir tempDewpointWater temp
2018-Jul-22 12:30N 37°38' W 122°52'4 8.2
2018-Jul-22 12:00N 37°36' W 122°57'4 8.2
2018-Jul-22 11:30N 37°33' W 123°01'4 7.9
2018-Jul-22 11:00N 37°31' W 123°05'4 7.3
2018-Jul-22 10:30N 37°32' W 123°10'3 7.0
2018-Jul-22 10:00N 37°34' W 123°14'3 6.9
2018-Jul-22 09:30N 37°35' W 123°18'4 7.1
2018-Jul-22 09:00N 37°37' W 123°22'4 7.2
2018-Jul-22 08:27N 37°38' W 123°26'3 5.9
2018-Jul-22 08:00N 37°39' W 123°29'1 1.1
2018-Jul-22 07:30N 37°39' W 123°29'3 5.2
2018-Jul-22 07:00N 37°39' W 123°25'3 6.1
2018-Jul-22 06:30N 37°38' W 123°22'3 6.0
2018-Jul-22 06:00N 37°38' W 123°18'4 6.3
2018-Jul-22 05:21N 37°38' W 123°13'2 6.2
2018-Jul-22 05:00N 37°38' W 123°10'3 6.0
2018-Jul-22 04:30N 37°38' W 123°06'3 6.0
2018-Jul-22 04:00N 37°38' W 123°02'4 6.5
2018-Jul-22 03:26N 37°38' W 122°58'3 6.5
2018-Jul-22 03:00N 37°40' W 122°55'3 6.9
2018-Jul-22 02:30N 37°42' W 122°51'4 6.9
2018-Jul-22 02:00N 37°43' W 122°47'3 6.8
2018-Jul-22 01:30N 37°44' W 122°43'3 6.8
2018-Jul-22 01:00N 37°46' W 122°39'3 6.0
2018-Jul-22 00:30N 37°47' W 122°36'3 5.6
2018-Jul-22 00:00N 37°48' W 122°32'2 4.6
2018-Jul-21 23:30N 37°49' W 122°30'2 4.7
2018-Jul-21 23:00N 37°50' W 122°27'3 5.1
2018-Jul-21 22:30N 37°52' W 122°25'2 4.7
2018-Jul-21 22:01N 37°54' W 122°25'1 2.4
2018-Jul-21 21:30N 37°54' W 122°23'1 2.5
2018-Jul-21 21:00N 37°55' W 122°22'0 0.0
2018-Jul-21 20:30N 37°55' W 122°22'0 0.0
2018-Jul-21 20:00N 37°55' W 122°22'0 0.0
2018-Jul-21 19:30N 37°55' W 122°22'0 0.0
2018-Jul-21 19:00N 37°55' W 122°22'0 0.0
2018-Jul-21 18:30N 37°55' W 122°22'1 1.9
2018-Jul-21 18:00N 37°54' W 122°22'3 7.0
2018-Jul-21 17:30N 37°51' W 122°24'4 8.8
2018-Jul-21 17:00N 37°46' W 122°23'0 0.0
2018-Jul-21 16:30N 37°46' W 122°23'0 0.0
2018-Jul-21 16:00N 37°46' W 122°23'0 0.0
2018-Jul-21 15:30N 37°46' W 122°23'0 0.0
2018-Jul-21 15:00N 37°46' W 122°23'0 0.0
2018-Jul-21 14:30N 37°46' W 122°23'0 0.0
2018-Jul-21 13:30N 37°46' W 122°23'0 0.0
2018-Jul-21 13:00N 37°46' W 122°23'0 0.0
2018-Jul-21 12:30N 37°46' W 122°23'0 0.0
2018-Jul-21 12:00N 37°46' W 122°23'0 0.0
2018-Jul-21 11:30N 37°46' W 122°23'0 0.0
2018-Jul-21 11:00N 37°46' W 122°23'0 0.0
2018-Jul-21 10:30N 37°46' W 122°23'0 0.0
2018-Jul-21 10:00N 37°46' W 122°23'0 0.0
2018-Jul-21 09:30N 37°46' W 122°23'0 0.0
2018-Jul-21 09:00N 37°46' W 122°23'0 0.0
2018-Jul-21 08:30N 37°46' W 122°23'0 0.0
2018-Jul-21 08:00N 37°46' W 122°23'0 0.0
2018-Jul-21 07:30N 37°46' W 122°23'0 0.0
2018-Jul-21 07:00N 37°46' W 122°23'0 0.0
2018-Jul-21 06:30N 37°46' W 122°23'0 0.0
2018-Jul-21 06:00N 37°46' W 122°23'0 0.0
2018-Jul-21 05:30N 37°46' W 122°23'0 0.0
2018-Jul-21 05:00N 37°46' W 122°23'0 0.0
2018-Jul-21 04:30N 37°46' W 122°23'0 0.0
2018-Jul-21 04:00N 37°46' W 122°23'0 0.0
2018-Jul-21 03:30N 37°46' W 122°23'0 0.0
2018-Jul-21 03:00N 37°46' W 122°23'0 0.0
2018-Jul-21 02:30N 37°46' W 122°23'0 0.0
2018-Jul-21 02:00N 37°46' W 122°23'0 0.0
2018-Jul-21 01:30N 37°46' W 122°23'0 0.0
2018-Jul-21 01:00N 37°46' W 122°23'0 0.0
2018-Jul-21 00:30N 37°46' W 122°23'0 0.0
2018-Jul-20 23:59N 37°46' W 122°23'0 0.0
2018-Jul-20 23:30N 37°46' W 122°23'0 0.0
2018-Jul-20 22:59N 37°46' W 122°23'0 0.0
2018-Jul-20 22:30N 37°46' W 122°23'0 0.0
2018-Jul-20 22:00N 37°46' W 122°23'0 0.0
2018-Jul-20 21:30N 37°46' W 122°23'0 0.0
2018-Jul-20 21:00N 37°46' W 122°23'0 0.0
2018-Jul-20 20:30N 37°46' W 122°23'0 0.0
2018-Jul-20 20:00N 37°46' W 122°23'0 0.0
2018-Jul-20 19:30N 37°46' W 122°23'0 0.0
2018-Jul-20 19:00N 37°46' W 122°23'0 0.0
2018-Jul-20 18:30N 37°46' W 122°23'0 0.0
2018-Jul-20 18:00N 37°46' W 122°23'0 0.0
2018-Jul-20 17:30N 37°46' W 122°23'0 0.0
2018-Jul-20 17:00N 37°46' W 122°23'0 0.0
2018-Jul-20 16:30N 37°46' W 122°23'  
2018-Jul-16 17:37N 37°46' W 122°23'0 0.0
2018-Jul-16 17:30N 37°46' W 122°23'  

Dump ship's entire track history